createdAt,value
2022-11-26T00:02:25.535Z,6.81
2022-11-26T00:05:33.686Z,6.82
2022-11-26T00:08:39.805Z,6.85
2022-11-26T00:11:46.066Z,6.87
2022-11-26T00:14:52.520Z,6.88
2022-11-26T00:17:59.179Z,6.87
2022-11-26T00:21:05.397Z,6.83
2022-11-26T00:24:26.064Z,6.79
2022-11-26T00:27:32.260Z,6.77
2022-11-26T00:30:38.326Z,6.78
2022-11-26T00:33:44.529Z,6.80
2022-11-26T00:36:50.811Z,6.82
2022-11-26T00:39:55.766Z,6.85
2022-11-26T00:43:02.454Z,6.83
2022-11-26T00:46:10.905Z,6.84
2022-11-26T00:49:17.894Z,6.82
2022-11-26T00:52:31.648Z,6.80
2022-11-26T00:55:40.230Z,6.80
2022-11-26T00:58:46.861Z,6.82
2022-11-26T01:01:52.998Z,6.83
2022-11-26T01:04:59.198Z,6.84
2022-11-26T01:08:20.133Z,6.85
2022-11-26T01:11:26.406Z,6.87
2022-11-26T01:14:30.938Z,6.88
2022-11-26T01:17:37.141Z,6.87
2022-11-26T01:20:43.573Z,6.89
2022-11-26T01:23:50.048Z,6.90
2022-11-26T01:26:56.304Z,6.90
2022-11-26T01:30:02.491Z,6.91
2022-11-26T01:33:08.718Z,6.92
2022-11-26T01:36:24.508Z,6.92
2022-11-26T01:39:30.624Z,6.92
2022-11-26T01:42:43.697Z,6.92
2022-11-26T01:45:49.878Z,6.92
2022-11-26T01:48:56.335Z,6.92
2022-11-26T01:52:04.863Z,6.90
2022-11-26T01:55:16.133Z,6.87
2022-11-26T01:58:25.992Z,6.86
2022-11-26T02:01:33.302Z,6.84
2022-11-26T02:04:42.913Z,6.84
2022-11-26T02:07:49.779Z,6.84
2022-11-26T02:10:56.149Z,6.84
2022-11-26T02:14:02.589Z,6.84
2022-11-26T02:17:21.033Z,6.81
2022-11-26T02:20:42.426Z,6.82
2022-11-26T02:24:19.323Z,6.79
2022-11-26T02:28:00.462Z,6.77
2022-11-26T02:31:11.043Z,6.77
2022-11-26T02:34:23.940Z,6.78
2022-11-26T02:37:37.012Z,6.76
2022-11-26T02:40:43.157Z,6.73
2022-11-26T02:43:49.781Z,6.71
2022-11-26T02:47:02.451Z,6.71
2022-11-26T02:50:13.501Z,6.72
2022-11-26T02:53:22.948Z,6.73
2022-11-26T02:56:30.469Z,6.74
2022-11-26T02:59:38.393Z,6.72
2022-11-26T03:02:48.577Z,6.71
2022-11-26T03:05:57.479Z,6.71
2022-11-26T03:09:03.905Z,6.70
2022-11-26T03:12:10.533Z,6.68
2022-11-26T03:15:16.849Z,6.67
2022-11-26T03:18:21.280Z,6.67
2022-11-26T03:21:27.390Z,6.66
2022-11-26T03:24:33.624Z,6.68
2022-11-26T03:27:39.854Z,6.67
2022-11-26T03:30:46.030Z,6.66
2022-11-26T03:33:52.248Z,6.66
2022-11-26T03:36:58.388Z,6.67
2022-11-26T03:40:04.906Z,6.67
2022-11-26T03:43:11.025Z,6.68
2022-11-26T03:46:17.265Z,6.69
2022-11-26T03:49:21.899Z,6.70
2022-11-26T03:52:28.065Z,6.68
2022-11-26T03:55:34.221Z,6.72
2022-11-26T03:58:40.393Z,6.73
2022-11-26T04:01:46.588Z,6.72
2022-11-26T04:04:51.358Z,6.72
2022-11-26T04:07:57.428Z,6.71
2022-11-26T04:11:04.010Z,6.75
2022-11-26T04:14:10.198Z,6.75
2022-11-26T04:17:16.300Z,6.73
2022-11-26T04:20:22.588Z,6.74
2022-11-26T04:23:27.144Z,6.76
2022-11-26T04:26:33.355Z,6.75
2022-11-26T04:29:39.563Z,6.79
2022-11-26T04:32:45.729Z,6.81
2022-11-26T04:35:52.630Z,6.82
2022-11-26T04:39:00.133Z,6.83
2022-11-26T04:42:06.328Z,6.83
2022-11-26T04:45:14.602Z,6.82
2022-11-26T04:48:20.957Z,6.80
2022-11-26T04:51:25.480Z,6.77
2022-11-26T04:54:31.643Z,6.74
2022-11-26T04:57:37.821Z,6.76
2022-11-26T05:00:47.374Z,6.78
2022-11-26T05:03:56.544Z,6.79
2022-11-26T05:07:02.776Z,6.82
2022-11-26T05:10:08.885Z,6.83
2022-11-26T05:13:14.836Z,6.81
2022-11-26T05:16:21.225Z,6.85
2022-11-26T05:19:27.677Z,6.86
2022-11-26T05:22:33.773Z,6.87
2022-11-26T05:25:40.033Z,6.87
2022-11-26T05:28:46.200Z,6.85
2022-11-26T05:31:52.438Z,6.84
2022-11-26T05:35:00.021Z,6.83
2022-11-26T05:38:07.024Z,6.81
2022-11-26T05:41:13.143Z,6.83
2022-11-26T05:44:19.315Z,6.83
2022-11-26T05:47:25.331Z,6.83
2022-11-26T05:50:31.561Z,6.82
2022-11-26T05:53:35.998Z,6.82
2022-11-26T05:56:42.068Z,6.80
2022-11-26T05:59:48.099Z,6.81
2022-11-26T06:02:54.232Z,6.82
2022-11-26T06:06:00.433Z,6.81
2022-11-26T06:09:07.142Z,6.80
2022-11-26T06:12:13.297Z,6.79
2022-11-26T06:15:19.504Z,6.76
2022-11-26T06:18:24.030Z,6.74
2022-11-26T06:21:30.085Z,6.69
2022-11-26T06:24:36.639Z,6.67
2022-11-26T06:27:43.435Z,6.67
2022-11-26T06:30:49.684Z,6.65
2022-11-26T06:33:57.650Z,6.64
2022-11-26T06:37:04.070Z,6.62
2022-11-26T06:40:17.135Z,6.60
2022-11-26T06:43:23.096Z,6.56
2022-11-26T06:46:29.549Z,6.52
2022-11-26T06:49:36.008Z,6.49
2022-11-26T06:52:42.060Z,6.49
2022-11-26T06:55:48.207Z,6.48
2022-11-26T06:58:56.441Z,6.46
2022-11-26T07:02:02.835Z,6.45
2022-11-26T07:05:09.785Z,6.42
2022-11-26T07:08:15.960Z,6.40
2022-11-26T07:11:22.653Z,6.39
2022-11-26T07:14:28.796Z,6.38
2022-11-26T07:17:34.901Z,6.35
2022-11-26T07:20:41.335Z,6.32
2022-11-26T07:23:47.983Z,6.32
2022-11-26T07:26:54.660Z,6.34
2022-11-26T07:30:00.729Z,6.36
2022-11-26T07:33:06.884Z,6.37
2022-11-26T07:36:17.908Z,6.38
2022-11-26T07:39:24.046Z,6.41
2022-11-26T07:42:33.383Z,6.44
2022-11-26T07:45:40.548Z,6.47
2022-11-26T07:48:47.145Z,6.50
2022-11-26T07:51:53.265Z,6.55
2022-11-26T07:54:59.524Z,6.59
2022-11-26T07:58:05.657Z,6.64
2022-11-26T08:01:14.857Z,6.70
2022-11-26T08:04:20.939Z,6.75
2022-11-26T08:07:29.430Z,6.82
2022-11-26T08:10:35.725Z,6.88
2022-11-26T08:13:41.901Z,6.93
2022-11-26T08:16:47.968Z,6.96
2022-11-26T08:19:54.185Z,6.98
2022-11-26T08:23:00.369Z,7.03
2022-11-26T08:26:23.863Z,7.11
2022-11-26T08:29:33.991Z,7.25
2022-11-26T08:32:40.201Z,7.40
2022-11-26T08:36:06.101Z,7.54
2022-11-26T08:39:14.011Z,7.71
2022-11-26T08:42:20.249Z,7.83
2022-11-26T08:45:26.410Z,7.91
2022-11-26T08:48:33.485Z,7.97
2022-11-26T08:51:39.671Z,8.04
2022-11-26T08:54:46.049Z,8.11
2022-11-26T08:57:52.381Z,8.19
2022-11-26T09:00:58.874Z,8.29
2022-11-26T09:04:06.357Z,8.39
2022-11-26T09:07:12.544Z,8.49
2022-11-26T09:10:18.804Z,8.55
2022-11-26T09:13:24.925Z,8.56
2022-11-26T09:16:31.278Z,8.57
2022-11-26T09:19:37.406Z,8.61
2022-11-26T09:22:43.552Z,8.66
2022-11-26T09:25:52.585Z,8.71
2022-11-26T09:28:58.713Z,8.77
2022-11-26T09:35:31.002Z,8.90
2022-11-26T09:38:37.743Z,9.00
2022-11-26T09:41:50.202Z,9.12
2022-11-26T09:45:10.107Z,9.25
2022-11-26T09:48:21.489Z,9.39
2022-11-26T09:51:28.617Z,9.52
2022-11-26T09:54:35.094Z,9.63
2022-11-26T09:57:45.066Z,9.75
2022-11-26T10:00:52.899Z,9.86
2022-11-26T10:03:59.632Z,9.98
2022-11-26T10:07:16.053Z,10.09
2022-11-26T10:10:28.757Z,10.18
2022-11-26T10:13:46.236Z,10.25
2022-11-26T10:17:15.115Z,10.31
2022-11-26T10:20:55.906Z,10.37
2022-11-26T10:24:06.077Z,10.43
2022-11-26T10:27:18.426Z,10.45
2022-11-26T10:30:26.513Z,10.48
2022-11-26T10:33:38.037Z,10.50
2022-11-26T10:36:46.780Z,10.57
2022-11-26T10:40:01.950Z,10.62
2022-11-26T10:43:20.109Z,10.66
2022-11-26T10:46:36.442Z,10.70
2022-11-26T10:49:42.880Z,10.74
2022-11-26T10:52:47.729Z,10.79
2022-11-26T10:55:55.517Z,10.82
2022-11-26T10:59:05.248Z,10.88
2022-11-26T11:02:28.713Z,10.93
2022-11-26T11:05:36.124Z,10.95
2022-11-26T11:08:42.495Z,10.95
2022-11-26T11:11:47.017Z,10.97
2022-11-26T11:14:53.697Z,10.96
2022-11-26T11:18:03.442Z,11.01
2022-11-26T11:21:17.001Z,11.03
2022-11-26T11:24:27.291Z,11.07
2022-11-26T11:27:43.656Z,11.11
2022-11-26T11:30:59.839Z,11.16
2022-11-26T11:34:15.062Z,11.20
2022-11-26T11:37:22.621Z,11.19
2022-11-26T11:40:31.150Z,11.23
2022-11-26T11:43:39.513Z,11.28
2022-11-26T11:47:04.035Z,11.30
2022-11-26T11:50:26.560Z,11.35
2022-11-26T11:53:40.290Z,11.39
2022-11-26T11:56:52.669Z,11.43
2022-11-26T12:00:13.815Z,11.45
2022-11-26T12:03:44.594Z,11.45
2022-11-26T12:07:01.806Z,11.47
2022-11-26T12:10:15.237Z,11.47
2022-11-26T12:13:24.837Z,11.49
2022-11-26T12:16:36.584Z,11.49
2022-11-26T12:19:48.487Z,11.48
2022-11-26T12:23:00.193Z,11.48
2022-11-26T12:26:12.694Z,11.47
2022-11-26T12:29:28.626Z,11.45
2022-11-26T12:32:41.279Z,11.44
2022-11-26T12:35:54.134Z,11.42
2022-11-26T12:39:03.581Z,11.40
2022-11-26T12:42:18.348Z,11.39
2022-11-26T12:45:40.766Z,11.39
2022-11-26T12:48:52.677Z,11.38
2022-11-26T12:52:10.461Z,11.40
2022-11-26T12:55:22.172Z,11.40
2022-11-26T12:58:46.128Z,11.38
2022-11-26T13:01:52.445Z,11.37
2022-11-26T13:04:58.299Z,11.36
2022-11-26T13:08:24.889Z,11.32
2022-11-26T13:11:41.638Z,11.32
2022-11-26T13:14:54.357Z,11.30
2022-11-26T13:18:02.346Z,11.29
2022-11-26T13:21:23.089Z,11.29
2022-11-26T13:24:52.113Z,11.29
2022-11-26T13:28:08.901Z,11.26
2022-11-26T13:31:33.131Z,11.24
2022-11-26T13:34:59.273Z,11.23
2022-11-26T13:38:11.111Z,11.21
2022-11-26T13:41:29.202Z,11.17
2022-11-26T13:45:05.736Z,11.18
2022-11-26T13:48:17.659Z,11.16
2022-11-26T13:51:29.070Z,11.16
2022-11-26T13:54:43.378Z,11.16
2022-11-26T13:57:53.557Z,11.16
2022-11-26T14:01:19.988Z,11.16
2022-11-26T14:04:53.034Z,11.17
2022-11-26T14:08:38.729Z,11.16
2022-11-26T14:12:00.606Z,11.14
2022-11-26T14:15:39.724Z,11.12
2022-11-26T14:19:08.521Z,11.08
2022-11-26T14:22:31.183Z,11.04
2022-11-26T14:25:41.587Z,11.02
2022-11-26T14:28:48.715Z,11.01
2022-11-26T14:31:56.263Z,11.01
2022-11-26T14:35:02.533Z,11.00
2022-11-26T14:38:23.287Z,10.96
2022-11-26T14:41:29.086Z,10.95
2022-11-26T14:44:35.424Z,10.94
2022-11-26T14:47:44.338Z,10.90
2022-11-26T14:50:50.856Z,10.88
2022-11-26T14:53:58.136Z,10.87
2022-11-26T14:57:08.937Z,10.86
2022-11-26T15:00:27.181Z,10.83
2022-11-26T15:03:33.853Z,10.78
2022-11-26T15:06:45.794Z,10.77
2022-11-26T15:10:03.426Z,10.75
2022-11-26T15:13:17.970Z,10.71
2022-11-26T15:16:33.686Z,10.66
2022-11-26T15:19:42.203Z,10.61
2022-11-26T15:22:53.109Z,10.59
2022-11-26T15:26:01.287Z,10.58
2022-11-26T15:29:31.317Z,10.60
2022-11-26T15:32:37.482Z,10.62
2022-11-26T15:35:44.066Z,10.62
2022-11-26T15:39:08.396Z,10.62
2022-11-26T15:42:30.601Z,10.63
2022-11-26T15:45:42.452Z,10.65
2022-11-26T15:48:52.725Z,10.64
2022-11-26T15:52:03.704Z,10.63
2022-11-26T15:55:20.923Z,10.63
2022-11-26T15:58:31.028Z,10.64
2022-11-26T16:01:38.681Z,10.65
2022-11-26T16:04:50.108Z,10.67
2022-11-26T16:08:04.572Z,10.66
2022-11-26T16:11:21.542Z,10.66
2022-11-26T16:14:33.173Z,10.66
2022-11-26T16:17:40.400Z,10.63
2022-11-26T16:20:46.993Z,10.62
2022-11-26T16:23:59.257Z,10.61
2022-11-26T16:27:07.828Z,10.61
2022-11-26T16:30:18.041Z,10.63
2022-11-26T16:33:24.225Z,10.65
2022-11-26T16:36:35.372Z,10.65
2022-11-26T16:39:41.483Z,10.64
2022-11-26T16:42:48.183Z,10.64
2022-11-26T16:45:56.848Z,10.65
2022-11-26T16:49:02.979Z,10.68
2022-11-26T16:52:15.975Z,10.70
2022-11-26T16:55:23.829Z,10.72
2022-11-26T16:58:32.906Z,10.74
2022-11-26T17:01:38.982Z,10.76
2022-11-26T17:04:45.037Z,10.77
2022-11-26T17:07:54.095Z,10.79
2022-11-26T17:11:00.428Z,10.80
2022-11-26T17:14:04.958Z,10.82
2022-11-26T17:17:13.421Z,10.81
2022-11-26T17:20:22.377Z,10.82
2022-11-26T17:23:29.247Z,10.83
2022-11-26T17:26:35.361Z,10.83
2022-11-26T17:29:43.031Z,10.84
2022-11-26T17:32:49.641Z,10.85
2022-11-26T17:35:55.854Z,10.86
2022-11-26T17:39:01.989Z,10.84
2022-11-26T17:42:08.802Z,10.82
2022-11-26T17:45:15.708Z,10.82
2022-11-26T17:48:26.457Z,10.82
2022-11-26T17:51:32.898Z,10.81
2022-11-26T17:54:39.169Z,10.82
2022-11-26T17:57:43.745Z,10.82
2022-11-26T18:00:49.829Z,10.76
2022-11-26T18:03:55.869Z,10.73
2022-11-26T18:07:08.071Z,10.71
2022-11-26T18:10:16.317Z,10.66
2022-11-26T18:13:22.353Z,10.63
2022-11-26T18:16:28.615Z,10.61
2022-11-26T18:19:33.184Z,10.58
2022-11-26T18:22:39.293Z,10.51
2022-11-26T18:25:45.728Z,10.49
2022-11-26T18:28:51.785Z,10.43
2022-11-26T18:31:57.944Z,10.34
2022-11-26T18:35:04.240Z,10.26
2022-11-26T18:38:09.749Z,10.20
2022-11-26T18:41:16.274Z,10.12
2022-11-26T18:44:22.524Z,10.09
2022-11-26T18:47:28.680Z,10.02
2022-11-26T18:50:34.775Z,9.91
2022-11-26T18:53:41.621Z,9.74
2022-11-26T18:56:47.762Z,9.58
2022-11-26T18:59:53.985Z,9.39
2022-11-26T19:03:00.134Z,9.26
2022-11-26T19:06:10.143Z,9.16
2022-11-26T19:09:19.223Z,9.06
2022-11-26T19:12:25.377Z,8.98
2022-11-26T19:15:31.561Z,8.95
2022-11-26T19:18:38.017Z,8.95
2022-11-26T19:21:44.238Z,9.02
2022-11-26T19:24:50.789Z,9.13
2022-11-26T19:28:00.967Z,9.23
2022-11-26T19:31:12.198Z,9.34
2022-11-26T19:34:18.685Z,9.44
2022-11-26T19:37:24.749Z,9.53
2022-11-26T19:40:31.273Z,9.62
2022-11-26T19:43:40.367Z,9.69
2022-11-26T19:46:48.316Z,9.75
2022-11-26T19:49:54.417Z,9.79
2022-11-26T19:53:00.648Z,9.83
2022-11-26T19:56:06.327Z,9.87
2022-11-26T19:59:12.658Z,9.87
2022-11-26T20:02:17.172Z,9.91
2022-11-26T20:05:23.358Z,9.90
2022-11-26T20:08:29.506Z,9.94
2022-11-26T20:11:34.298Z,9.95
2022-11-26T20:14:40.445Z,9.93
2022-11-26T20:17:46.586Z,9.96
2022-11-26T20:21:01.781Z,9.97
2022-11-26T20:24:10.691Z,9.97
2022-11-26T20:27:16.877Z,9.98
2022-11-26T20:30:24.954Z,9.98
2022-11-26T20:33:31.006Z,9.98
2022-11-26T20:36:37.850Z,9.99
2022-11-26T20:39:44.110Z,9.98
2022-11-26T20:42:50.321Z,9.99
2022-11-26T20:46:03.948Z,9.98
2022-11-26T20:49:11.809Z,9.98
2022-11-26T20:52:19.728Z,9.98
2022-11-26T20:55:26.090Z,9.98
2022-11-26T20:58:30.813Z,9.97
2022-11-26T21:01:37.202Z,9.90
2022-11-26T21:04:43.325Z,9.91
2022-11-26T21:07:50.928Z,9.92
2022-11-26T21:10:57.094Z,9.93
2022-11-26T21:14:04.061Z,9.94
2022-11-26T21:17:10.400Z,9.95
2022-11-26T21:20:17.227Z,9.95
2022-11-26T21:23:23.369Z,9.96
2022-11-26T21:26:29.633Z,9.97
2022-11-26T21:29:34.089Z,9.97
2022-11-26T21:32:40.277Z,9.93
2022-11-26T21:35:46.363Z,9.96
2022-11-26T21:38:52.668Z,9.96
2022-11-26T21:41:57.160Z,9.96
2022-11-26T21:45:03.225Z,9.94
2022-11-26T21:48:09.765Z,9.96
2022-11-26T21:51:17.675Z,9.97
2022-11-26T21:54:23.813Z,9.98
2022-11-26T21:57:33.568Z,9.97
2022-11-26T22:00:39.724Z,9.96
2022-11-26T22:03:48.507Z,9.95
2022-11-26T22:06:54.614Z,9.94
2022-11-26T22:09:59.300Z,9.92
2022-11-26T22:13:05.452Z,9.87
2022-11-26T22:16:13.327Z,9.77
2022-11-26T22:19:19.758Z,9.61
2022-11-26T22:22:24.301Z,9.48
2022-11-26T22:25:30.413Z,9.27
2022-11-26T22:28:38.665Z,9.13
2022-11-26T22:31:45.535Z,9.04
2022-11-26T22:34:51.610Z,8.92
2022-11-26T22:37:57.830Z,8.76
2022-11-26T22:41:05.818Z,8.66
2022-11-26T22:44:13.266Z,8.58
2022-11-26T22:47:19.531Z,8.53
2022-11-26T22:50:25.973Z,8.51
2022-11-26T22:53:33.417Z,8.51
2022-11-26T22:56:39.906Z,8.43
2022-11-26T22:59:45.977Z,8.35
2022-11-26T23:02:52.184Z,8.27
2022-11-26T23:05:56.946Z,8.19
2022-11-26T23:09:04.521Z,8.12
2022-11-26T23:12:10.965Z,8.10
2022-11-26T23:15:17.360Z,8.13
2022-11-26T23:18:21.987Z,8.18
2022-11-26T23:21:29.933Z,8.19
2022-11-26T23:24:35.991Z,8.26
2022-11-26T23:27:42.119Z,8.34
2022-11-26T23:30:48.218Z,8.41
2022-11-26T23:33:54.425Z,8.43
2022-11-26T23:37:00.471Z,8.48
2022-11-26T23:40:08.133Z,8.51
2022-11-26T23:43:14.286Z,8.53
2022-11-26T23:46:22.124Z,8.49
2022-11-26T23:49:28.405Z,8.48
2022-11-26T23:52:34.502Z,8.51
2022-11-26T23:55:40.630Z,8.57
2022-11-26T23:58:49.106Z,8.62
